Linwood, Pennsylvania
Current Conditions -  °F | °C
As of 8:54 PM on Monday 22 Dec 2014 (Local Time) from KPHL Reporting Station
Haze Haze  
Wind Chill: 34°   Ceiling: 4000
Heat Index: 41°   Visibility: 5mi
Dew Point: 38°   Wind: 12mph
Humidity: 89%   Direction: 50°NE
Pressure: 30.17"   Gusts: NA
Location:  39.8393°N, 75.4661°W
Report Text: KPHL 230154Z 05010KT 5SM BR SCT020 BKN040 OVC070 05/03 A3017 RMK AO2 RAE32 SLP214 P0001 T00500033 $
Loading
Personal Weather Stations






























Interactive Weather Map New forecast layout! Learn more

10-Day Weather Forecast

Advertisements
Track Severe Weather on mobile